Time;durP1;ratioP1;P1;durP2;ratioP2;P2;SDS_P1;SDS_P2;PMS_P1;PMS_P2;Temp;Humidity;BMP_temperature;BMP_pressure;BME280_temperature;BME280_humidity;BME280_pressure;Samples;Min_cycle;Max_cycle;Signal;HPM_P1;HPM_P2
2021/03/31 00:02:06;;;;;;;38.05;26.25;;;358.80;1792.00;;;;;;4956652;29;20019;-69
2021/03/31 00:04:31;;;;;;;40.13;25.02;;;358.80;1792.00;;;;;;4957472;29;20038;-69
2021/03/31 00:06:57;;;;;;;36.58;24.33;;;358.70;1817.60;;;;;;4956645;29;20023;-69
2021/03/31 00:09:23;;;;;;;41.83;26.08;;;333.70;1894.40;;;;;;4956922;29;20074;-69
2021/03/31 00:11:49;;;;;;;39.90;25.52;;;333.70;1894.40;;;;;;4956735;28;20505;-69
2021/03/31 00:14:16;;;;;;;39.72;25.02;;;333.60;1920.00;;;;;;4956684;29;20069;-69
2021/03/31 00:16:42;;;;;;;41.83;26.63;;;333.40;1945.60;;;;;;4956656;29;20429;-69
2021/03/31 00:19:08;;;;;;;33.95;20.85;;;333.40;1971.20;;;;;;4956394;29;20035;-68
2021/03/31 00:21:34;;;;;;;34.75;21.40;;;333.40;1945.60;;;;;;4956608;29;20050;-69
2021/03/31 00:24:00;;;;;;;38.50;22.50;;;333.40;1945.60;;;;;;4956540;29;20496;-69
2021/03/31 00:26:25;;;;;;;33.63;22.75;;;333.40;1945.60;;;;;;4956551;29;20023;-69
2021/03/31 00:28:52;;;;;;;34.65;21.13;;;333.40;1945.60;;;;;;4956495;29;20024;-70
2021/03/31 00:31:17;;;;;;;37.85;23.38;;;333.30;1971.20;;;;;;4954865;29;20031;-69
2021/03/31 00:33:43;;;;;;;35.13;22.10;;;333.40;1945.60;;;;;;4956474;29;20405;-69
2021/03/31 00:36:09;;;;;;;36.75;24.33;;;333.50;1945.60;;;;;;4956314;29;20627;-69
2021/03/31 00:38:35;;;;;;;34.10;22.58;;;333.60;1894.40;;;;;;4956325;29;20546;-69
2021/03/31 00:41:02;;;;;;;35.97;23.83;;;333.70;1894.40;;;;;;4956029;29;20122;-69
2021/03/31 00:43:28;;;;;;;36.67;22.25;;;333.40;1945.60;;;;;;4956150;29;20095;-70
2021/03/31 00:45:54;;;;;;;36.13;21.95;;;333.20;1971.20;;;;;;4956248;29;20035;-67
2021/03/31 00:48:19;;;;;;;32.63;20.65;;;308.10;2022.40;;;;;;4955870;29;20048;-69
2021/03/31 00:50:54;;;;;;;27.92;19.33;;;307.90;2073.60;;;;;;4955999;29;20031;-68
2021/03/31 00:53:25;;;;;;;23.58;16.35;;;307.90;2099.20;;;;;;4955893;29;20038;-68
2021/03/31 00:55:51;;;;;;;29.38;18.45;;;307.90;2073.60;;;;;;4956025;29;20482;-69
2021/03/31 00:58:17;;;;;;;24.75;15.77;;;307.80;2099.20;;;;;;4955741;29;20038;-65
2021/03/31 01:00:43;;;;;;;23.08;14.88;;;307.80;2099.20;;;;;;4955875;29;20027;-69
2021/03/31 01:03:09;;;;;;;27.55;16.23;;;307.70;2099.20;;;;;;4955511;28;20115;-66
2021/03/31 01:05:35;;;;;;;25.30;16.55;;;307.30;2201.60;;;;;;4955895;29;20082;-69
2021/03/31 01:08:00;;;;;;;26.25;15.68;;;307.80;2124.80;;;;;;4955757;29;20023;-68
2021/03/31 01:10:39;;;;;;;27.83;16.38;;;308.10;2048.00;;;;;;4955614;29;20103;-69
2021/03/31 01:13:33;;;;;;;26.02;16.85;;;308.00;2048.00;;;;;;4955735;29;20039;-67
2021/03/31 01:16:26;;;;;;;21.60;15.52;;;307.80;2099.20;;;;;;4955346;29;20375;-62
2021/03/31 01:19:09;;;;;;;22.10;15.15;;;307.70;2099.20;;;;;;4955613;29;20409;-68
2021/03/31 01:22:05;;;;;;;23.75;14.27;;;307.60;2099.20;;;;;;4955468;29;20038;-69
2021/03/31 01:24:53;;;;;;;43.90;21.73;;;307.70;2099.20;;;;;;4955499;29;20031;-69
2021/03/31 01:27:20;;;;;;;23.27;14.45;;;307.80;2073.60;;;;;;4955249;29;20055;-65
2021/03/31 01:30:21;;;;;;;23.73;15.13;;;307.60;2124.80;;;;;;4955314;29;20032;-70
2021/03/31 01:33:04;;;;;;;19.73;13.70;;;307.70;2073.60;;;;;;4933742;29;20088;-68
2021/03/31 01:35:31;;;;;;;21.48;12.55;;;307.60;2099.20;;;;;;4933968;29;20039;-69
2021/03/31 01:38:04;;;;;;;20.77;12.55;;;307.50;2124.80;;;;;;4933888;29;20035;-68
2021/03/31 01:40:31;;;;;;;20.17;12.95;;;307.30;2124.80;;;;;;4933539;29;20060;-69
2021/03/31 01:43:03;;;;;;;22.80;13.68;;;307.20;2150.40;;;;;;4933773;29;20075;-69
2021/03/31 01:45:32;;;;;;;21.60;13.48;;;307.20;2150.40;;;;;;4933764;29;20040;-68
2021/03/31 01:48:05;;;;;;;19.52;13.55;;;307.40;2099.20;;;;;;4933695;29;20597;-68
2021/03/31 01:50:34;;;;;;;21.05;12.73;;;307.40;2099.20;;;;;;4933612;29;20032;-69
2021/03/31 01:53:02;;;;;;;18.88;14.13;;;307.60;2073.60;;;;;;4933687;29;20172;-68
2021/03/31 01:55:29;;;;;;;20.13;13.30;;;307.30;2124.80;;;;;;4933045;29;20043;-69
2021/03/31 01:57:56;;;;;;;21.10;13.70;;;307.20;2124.80;;;;;;4933436;29;20027;-69
2021/03/31 02:00:22;;;;;;;20.40;13.93;;;307.30;2099.20;;;;;;4933316;29;20043;-62
2021/03/31 02:02:55;;;;;;;20.90;13.57;;;307.20;2099.20;;;;;;4933474;29;20027;-69
2021/03/31 02:05:22;;;;;;;23.95;13.40;;;282.50;2099.20;;;;;;4933380;29;20501;-68
2021/03/31 02:07:49;;;;;;;19.77;13.07;;;282.40;2124.80;;;;;;4953523;29;20039;-64
2021/03/31 02:10:16;;;;;;;22.95;13.32;;;282.50;2099.20;;;;;;4954458;29;20027;-69
2021/03/31 02:12:44;;;;;;;28.30;15.45;;;282.20;2150.40;;;;;;4953150;28;20055;-69
2021/03/31 02:15:17;;;;;;;20.52;13.02;;;282.30;2124.80;;;;;;4954005;28;20031;-68
2021/03/31 02:17:43;;;;;;;22.38;13.82;;;282.20;2150.40;;;;;;4954533;29;20505;-69
2021/03/31 02:20:10;;;;;;;20.25;12.82;;;282.30;2124.80;;;;;;4954432;29;20027;-68
2021/03/31 02:22:37;;;;;;;19.90;13.43;;;282.50;2073.60;;;;;;4954395;29;20038;-69
2021/03/31 02:25:09;;;;;;;18.33;12.13;;;282.20;2124.80;;;;;;4954359;29;20037;-67
2021/03/31 02:27:36;;;;;;;19.50;11.75;;;282.00;2176.00;;;;;;4954295;29;20027;-69
2021/03/31 02:30:07;;;;;;;17.77;11.95;;;281.80;2227.20;;;;;;4954452;29;20031;-69
2021/03/31 02:32:34;;;;;;;17.75;11.95;;;281.70;2227.20;;;;;;4954032;29;20025;-69
2021/03/31 02:35:01;;;;;;;24.65;13.95;;;281.60;2252.80;;;;;;4954381;29;20028;-69
2021/03/31 02:37:28;;;;;;;21.60;14.13;;;281.70;2227.20;;;;;;4954122;29;20062;-69
2021/03/31 02:39:55;;;;;;;22.20;14.13;;;281.60;2278.40;;;;;;4953764;29;20039;-69
2021/03/31 02:42:24;;;;;;;23.27;14.45;;;256.80;2252.80;;;;;;4953986;29;20114;-66
2021/03/31 02:44:53;;;;;;;22.00;13.05;;;256.70;2252.80;;;;;;4954389;29;20086;-69
2021/03/31 02:47:24;;;;;;;28.33;14.75;;;281.60;2278.40;;;;;;4954089;29;20114;-62
2021/03/31 02:49:54;;;;;;;66.10;31.30;;;281.80;2227.20;;;;;;4953966;29;20050;-67
2021/03/31 02:52:22;;;;;;;26.52;15.80;;;282.10;2176.00;;;;;;4954176;29;20074;-61
2021/03/31 02:54:49;;;;;;;26.55;15.38;;;282.10;2176.00;;;;;;4954086;29;20486;-69
2021/03/31 02:57:16;;;;;;;25.30;16.20;;;282.20;2150.40;;;;;;4953968;29;20471;-66
2021/03/31 02:59:43;;;;;;;30.27;16.88;;;282.30;2124.80;;;;;;4953967;29;20438;-69
2021/03/31 03:02:10;;;;;;;18.25;13.57;;;282.20;2124.80;;;;;;4953925;29;20110;-67
2021/03/31 03:04:37;;;;;;;20.63;13.52;;;282.00;2150.40;;;;;;4954049;29;20074;-61
2021/03/31 03:07:05;;;;;;;17.42;11.95;;;281.90;2176.00;;;;;;4953767;29;20031;-67
2021/03/31 03:09:32;;;;;;;17.05;12.13;;;281.90;2176.00;;;;;;4954051;29;20020;-69
2021/03/31 03:11:58;;;;;;;20.35;14.77;;;282.00;2150.40;;;;;;4953724;28;20043;-69
2021/03/31 03:14:25;;;;;;;20.13;13.70;;;282.10;2124.80;;;;;;4954001;29;20047;-69
2021/03/31 03:16:51;;;;;;;28.83;18.23;;;282.20;2099.20;;;;;;4954008;29;20023;-68
2021/03/31 03:19:18;;;;;;;19.02;12.88;;;282.10;2099.20;;;;;;4953898;29;20386;-68
2021/03/31 03:21:44;;;;;;;23.60;13.27;;;282.00;2124.80;;;;;;4953759;29;20397;-68
2021/03/31 03:24:13;;;;;;;25.85;15.65;;;281.80;2150.40;;;;;;4953659;29;20601;-69
2021/03/31 03:26:39;;;;;;;34.63;20.63;;;281.90;2150.40;;;;;;4956483;28;20035;-68
2021/03/31 03:29:07;;;;;;;30.35;18.15;;;281.80;2150.40;;;;;;4957525;29;20382;-68
2021/03/31 03:31:33;;;;;;;33.20;20.15;;;282.00;2124.80;;;;;;4957819;29;20358;-68
2021/03/31 03:34:00;;;;;;;33.42;19.90;;;282.00;2099.20;;;;;;4957523;29;20042;-68
2021/03/31 03:36:27;;;;;;;19.88;13.40;;;281.90;2124.80;;;;;;4957462;29;20049;-68
2021/03/31 03:38:53;;;;;;;17.80;13.63;;;281.90;2124.80;;;;;;4957683;29;20065;-69
2021/03/31 03:41:18;;;;;;;21.08;13.27;;;281.80;2150.40;;;;;;4956931;29;20058;-69
2021/03/31 03:43:44;;;;;;;21.33;12.75;;;281.80;2124.80;;;;;;4957367;29;20087;-67
2021/03/31 03:46:12;;;;;;;18.48;12.63;;;281.80;2150.40;;;;;;4957346;29;20031;-66
2021/03/31 03:48:39;;;;;;;20.27;12.13;;;281.70;2150.40;;;;;;4957077;29;20019;-68
2021/03/31 03:51:09;;;;;;;16.48;11.57;;;281.70;2150.40;;;;;;4957221;29;20023;-62
2021/03/31 03:53:35;;;;;;;19.13;13.15;;;281.60;2150.40;;;;;;4957265;29;20023;-68
2021/03/31 03:56:03;;;;;;;20.35;13.90;;;256.80;2150.40;;;;;;4957218;29;20110;-68
2021/03/31 03:58:29;;;;;;;23.20;14.73;;;256.90;2124.80;;;;;;4956857;29;20114;-69
2021/03/31 04:00:56;;;;;;;20.50;15.52;;;281.70;2124.80;;;;;;4956918;29;20118;-69
2021/03/31 04:03:22;;;;;;;24.25;14.82;;;281.70;2124.80;;;;;;4957298;29;20019;-68
2021/03/31 04:05:48;;;;;;;22.75;14.57;;;256.70;2150.40;;;;;;4956900;29;20074;-69
2021/03/31 04:08:14;;;;;;;22.40;13.77;;;256.70;2150.40;;;;;;4956799;29;20066;-68
2021/03/31 04:10:42;;;;;;;24.10;14.95;;;256.40;2252.80;;;;;;4956416;28;20028;-61
2021/03/31 04:13:08;;;;;;;28.92;14.82;;;256.20;2252.80;;;;;;4956757;29;20039;-68
2021/03/31 04:15:35;;;;;;;33.35;16.88;;;256.20;2252.80;;;;;;4956689;29;20059;-69
2021/03/31 04:18:02;;;;;;;28.33;17.88;;;256.40;2252.80;;;;;;4956654;29;20038;-69
2021/03/31 04:20:30;;;;;;;22.23;16.42;;;256.50;2201.60;;;;;;4956899;29;20482;-69
2021/03/31 04:22:56;;;;;;;32.83;19.70;;;256.30;2252.80;;;;;;4956477;29;20386;-69
2021/03/31 04:25:26;;;;;;;37.30;24.50;;;256.20;2252.80;;;;;;4956520;29;20039;-68
2021/03/31 04:27:54;;;;;;;37.10;25.42;;;256.20;2252.80;;;;;;4956466;29;20023;-69
2021/03/31 04:30:22;;;;;;;35.83;21.17;;;256.20;2252.80;;;;;;4956410;29;20047;-61
2021/03/31 04:32:50;;;;;;;32.85;21.67;;;256.20;2252.80;;;;;;4956250;29;20042;-69
2021/03/31 04:35:17;;;;;;;43.63;25.92;;;256.20;2252.80;;;;;;4956289;29;20423;-64
2021/03/31 04:37:43;;;;;;;50.63;27.48;;;256.10;2227.20;;;;;;4955476;28;20046;-63
2021/03/31 04:40:11;;;;;;;40.28;25.33;;;256.10;2252.80;;;;;;4955945;29;20043;-67
2021/03/31 04:42:37;;;;;;;32.72;22.10;;;231.30;2252.80;;;;;;4956118;29;20030;-69
2021/03/31 04:45:05;;;;;;;37.17;21.85;;;231.30;2252.80;;;;;;4954857;29;20023;-68
2021/03/31 04:47:35;;;;;;;35.25;23.17;;;231.20;2252.80;;;;;;4956355;29;20355;-69
2021/03/31 04:50:02;;;;;;;36.97;23.42;;;231.30;2252.80;;;;;;4955829;29;20446;-68
2021/03/31 04:52:29;;;;;;;34.72;20.20;;;231.30;2252.80;;;;;;4956250;29;20107;-69
2021/03/31 04:54:55;;;;;;;34.58;20.88;;;256.10;2252.80;;;;;;4955835;29;20056;-68
2021/03/31 04:57:21;;;;;;;35.60;21.45;;;256.70;2201.60;;;;;;4956027;29;20102;-69
2021/03/31 04:59:47;;;;;;;51.92;27.27;;;256.40;2227.20;;;;;;4955752;29;20122;-68
2021/03/31 05:02:12;;;;;;;43.80;24.20;;;256.50;2227.20;;;;;;4955785;29;20426;-72
2021/03/31 05:04:38;;;;;;;40.88;22.38;;;256.50;2201.60;;;;;;4944574;29;20034;-68
2021/03/31 05:07:04;;;;;;;46.33;24.67;;;256.30;2252.80;;;;;;4953498;29;20031;-71
2021/03/31 05:09:30;;;;;;;46.78;25.90;;;256.40;2252.80;;;;;;4954919;29;20178;-69
2021/03/31 05:11:57;;;;;;;58.65;27.42;;;256.50;2227.20;;;;;;4954634;28;20131;-69
2021/03/31 05:14:22;;;;;;;49.05;30.73;;;256.50;2227.20;;;;;;4954842;28;20035;-71
2021/03/31 05:16:48;;;;;;;60.50;35.33;;;256.40;2252.80;;;;;;4954885;29;20151;-71
2021/03/31 05:19:14;;;;;;;69.75;40.13;;;256.30;2252.80;;;;;;4953976;29;20067;-68
2021/03/31 05:21:39;;;;;;;72.88;39.33;;;256.00;2252.80;;;;;;4954635;29;20035;-71
2021/03/31 05:24:07;;;;;;;61.75;35.78;;;231.30;2252.80;;;;;;4954502;29;20019;-70
2021/03/31 05:26:33;;;;;;;55.25;33.20;;;256.00;2252.80;;;;;;4954818;29;20027;-71
2021/03/31 05:28:58;;;;;;;55.92;36.72;;;256.00;2252.80;;;;;;4954515;29;20037;-72
2021/03/31 05:31:24;;;;;;;68.28;37.60;;;256.40;2252.80;;;;;;4954547;29;20403;-72
2021/03/31 05:33:50;;;;;;;77.05;47.65;;;256.20;2252.80;;;;;;4954489;28;20030;-71
2021/03/31 05:36:16;;;;;;;72.00;43.15;;;256.40;2252.80;;;;;;4954300;29;20107;-72
2021/03/31 05:38:42;;;;;;;72.65;40.90;;;256.50;2252.80;;;;;;4954554;29;20382;-71
2021/03/31 05:41:07;;;;;;;63.67;37.08;;;256.70;2227.20;;;;;;4954259;28;20037;-62
2021/03/31 05:43:35;;;;;;;63.00;38.35;;;;;;;;;;4954371;29;20032;-71
2021/03/31 05:46:01;;;;;;;56.63;33.35;;;;;;;;;;4954433;29;20023;-69
2021/03/31 05:48:27;;;;;;;62.60;39.33;;;;;;;;;;4953881;28;20019;-68
2021/03/31 05:50:53;;;;;;;73.38;41.03;;;282.00;2176.00;;;;;;4953704;29;20490;-60
2021/03/31 05:53:19;;;;;;;73.80;36.65;;;281.90;2176.00;;;;;;4954376;29;20069;-71
2021/03/31 05:55:45;;;;;;;70.25;38.30;;;282.00;2176.00;;;;;;4954270;29;20422;-71
2021/03/31 05:58:11;;;;;;;74.68;52.25;;;282.10;2150.40;;;;;;4954529;29;20035;-71
2021/03/31 06:00:38;;;;;;;68.00;42.33;;;282.10;2176.00;;;;;;4954398;29;20062;-70
2021/03/31 06:03:04;;;;;;;61.08;35.88;;;282.20;2150.40;;;;;;4953409;29;20477;-69
2021/03/31 06:05:33;;;;;;;58.35;34.17;;;282.20;2176.00;;;;;;4942768;29;20028;-69
2021/03/31 06:07:59;;;;;;;45.78;32.80;;;282.10;2176.00;;;;;;4926746;29;20035;-64
2021/03/31 06:10:29;;;;;;;67.60;36.65;;;282.30;2176.00;;;;;;4953799;29;20086;-63
2021/03/31 06:12:59;;;;;;;125.13;63.33;;;282.50;2150.40;;;;;;4953756;28;20411;-61
2021/03/31 06:15:40;;;;;;;168.02;76.13;;;307.30;2150.40;;;;;;4953944;29;20036;-61
2021/03/31 06:18:15;;;;;;;228.57;104.60;;;307.90;2099.20;;;;;;4954306;29;20371;-63
2021/03/31 06:20:44;;;;;;;170.25;84.35;;;332.80;2048.00;;;;;;4953599;29;20047;-61
2021/03/31 06:25:54;;;;;;;83.88;53.72;;;333.10;1996.80;;;;;;4953987;29;20087;-61
2021/03/31 06:28:37;;;;;;;91.60;53.38;;;332.90;2022.40;;;;;;4953648;29;20078;-69
2021/03/31 06:31:14;;;;;;;82.72;53.03;;;333.00;2022.40;;;;;;4953446;29;20046;-61
2021/03/31 06:33:43;;;;;;;97.95;58.17;;;333.40;1971.20;;;;;;4953649;29;20027;-66
2021/03/31 06:36:11;;;;;;;96.35;55.97;;;333.20;1996.80;;;;;;4940907;29;20074;-70
2021/03/31 06:38:46;;;;;;;87.55;53.22;;;333.20;1996.80;;;;;;4953723;29;20099;-68
2021/03/31 06:41:30;;;;;;;83.30;51.67;;;333.20;1996.80;;;;;;4953255;29;20035;-60
2021/03/31 06:44:23;;;;;;;83.00;51.08;;;333.20;2022.40;;;;;;4942110;29;20099;-64
2021/03/31 06:49:15;;;;;;;81.25;53.90;;;333.40;1996.80;;;;;;4953561;29;20019;-60
2021/03/31 06:51:42;;;;;;;103.28;70.22;;;333.50;1996.80;;;;;;4953399;29;20038;-61
2021/03/31 06:54:14;;;;;;;90.65;58.42;;;333.70;1996.80;;;;;;4953745;29;20019;-61
2021/03/31 06:56:42;;;;;;;96.78;61.63;;;358.40;1971.20;;;;;;4953781;29;20387;-60
2021/03/31 06:59:08;;;;;;;121.70;79.47;;;358.70;1920.00;;;;;;4953551;29;20572;-65
2021/03/31 07:01:34;;;;;;;95.03;59.03;;;359.10;1894.40;;;;;;4955916;28;20082;-73
2021/03/31 07:04:03;;;;;;;91.57;62.72;;;359.20;1843.20;;;;;;4955795;29;20015;-71
2021/03/31 07:06:29;;;;;;;115.82;65.65;;;359.30;1817.60;;;;;;4949563;29;20031;-62
2021/03/31 07:08:55;;;;;;;102.57;68.85;;;359.30;1843.20;;;;;;4957048;29;20023;-71
2021/03/31 07:11:41;;;;;;;116.55;76.38;;;384.00;1843.20;;;;;;4957047;28;20569;-75
2021/03/31 07:14:09;;;;;;;103.63;68.30;;;384.40;1817.60;;;;;;4957244;29;20039;-73
2021/03/31 07:16:36;;;;;;;89.45;62.08;;;384.30;1817.60;;;;;;4957155;29;20023;-67
2021/03/31 07:19:03;;;;;;;96.97;65.40;;;384.30;1817.60;;;;;;4956676;29;20046;-71
2021/03/31 07:21:30;;;;;;;75.45;52.22;;;384.70;1817.60;;;;;;4956781;29;20510;-66
2021/03/31 07:23:56;;;;;;;82.60;54.92;;;384.80;1766.40;;;;;;4956836;29;20102;-63
2021/03/31 07:26:23;;;;;;;82.80;55.55;;;384.90;1766.40;;;;;;4957083;29;20028;-71
2021/03/31 07:28:50;;;;;;;82.97;52.55;;;409.70;1766.40;;;;;;4957023;29;20027;-70
2021/03/31 07:31:22;;;;;;;87.38;60.30;;;409.90;1740.80;;;;;;4956597;29;20502;-61
2021/03/31 07:34:06;;;;;;;80.75;57.35;;;410.20;1715.20;;;;;;4956749;29;20026;-61
2021/03/31 07:36:32;;;;;;;89.00;57.28;;;410.40;1689.60;;;;;;4944178;29;20031;-61
2021/03/31 07:39:02;;;;;;;70.65;47.80;;;435.20;1664.00;;;;;;4956763;29;20023;-73
2021/03/31 07:41:28;;;;;;;82.53;53.72;;;435.20;1638.40;;;;;;4955070;29;20043;-69
2021/03/31 07:43:56;;;;;;;102.28;58.72;;;435.50;1638.40;;;;;;4956824;29;20386;-66
2021/03/31 07:46:38;;;;;;;68.30;43.30;;;435.60;1638.40;;;;;;4956597;29;20023;-63
2021/03/31 07:49:05;;;;;;;47.63;31.13;;;435.60;1587.20;;;;;;4956534;29;20057;-70
2021/03/31 07:51:31;;;;;;;44.60;31.13;;;435.70;1561.60;;;;;;4955501;29;20019;-66
2021/03/31 07:54:00;;;;;;;47.30;28.80;;;435.80;1561.60;;;;;;4956779;29;20019;-68
2021/03/31 07:56:36;;;;;;;66.75;37.78;;;435.90;1536.00;;;;;;4956924;29;20023;-63
2021/03/31 07:59:01;;;;;;;54.22;31.33;;;460.80;1587.20;;;;;;4956571;29;20031;-61
2021/03/31 08:01:49;;;;;;;43.60;23.23;;;461.10;1536.00;;;;;;4956686;29;20035;-70
2021/03/31 08:04:18;;;;;;;27.20;17.98;;;461.20;1484.80;;;;;;4955482;29;20031;-62
2021/03/31 08:06:45;;;;;;;31.85;20.23;;;461.20;1484.80;;;;;;4950418;29;20023;-71
2021/03/31 08:09:32;;;;;;;26.17;18.35;;;461.40;1459.20;;;;;;4956376;29;20027;-63
2021/03/31 08:12:03;;;;;;;29.30;17.45;;;461.70;1433.60;;;;;;4955038;28;20059;-62
2021/03/31 08:14:34;;;;;;;24.75;14.73;;;486.50;1356.80;;;;;;4956497;29;20031;-70
2021/03/31 08:17:05;;;;;;;21.52;12.43;;;486.40;1356.80;;;;;;4956020;29;20490;-61
2021/03/31 08:19:35;;;;;;;20.02;12.00;;;486.50;1356.80;;;;;;4956190;29;20046;-61
2021/03/31 08:22:37;;;;;;;21.83;12.70;;;486.60;1331.20;;;;;;4956277;29;20039;-64
2021/03/31 08:25:22;;;;;;;16.58;11.68;;;486.60;1331.20;;;;;;4934666;29;20036;-70
2021/03/31 08:27:55;;;;;;;20.17;12.02;;;486.40;1331.20;;;;;;4934665;29;20032;-73
2021/03/31 08:30:21;;;;;;;16.88;11.90;;;486.50;1305.60;;;;;;4934653;29;20043;-63
2021/03/31 08:32:47;;;;;;;14.52;9.07;;;486.40;1305.60;;;;;;4934521;29;20468;-70
2021/03/31 08:35:15;;;;;;;17.55;12.25;;;486.70;1280.00;;;;;;4926003;29;20076;-62
2021/03/31 08:37:43;;;;;;;15.95;10.85;;;486.80;1254.40;;;;;;4931122;29;20028;-68
2021/03/31 08:40:09;;;;;;;24.45;12.82;;;487.10;1228.80;;;;;;4934329;29;20391;-70
2021/03/31 08:42:35;;;;;;;20.88;14.38;;;487.30;1228.80;;;;;;4934609;29;20036;-62
2021/03/31 08:45:04;;;;;;;35.08;17.05;;;512.10;1203.20;;;;;;4934521;29;20153;-60
2021/03/31 08:47:34;;;;;;;55.90;32.88;;;512.30;1203.20;;;;;;4933811;29;20485;-72
2021/03/31 08:50:07;;;;;;;22.75;13.80;;;512.40;1177.60;;;;;;4934132;29;20032;-68
2021/03/31 08:52:38;;;;;;;15.88;10.35;;;512.60;1152.00;;;;;;4934324;29;20039;-70
2021/03/31 08:55:13;;;;;;;16.02;11.43;;;512.60;1152.00;;;;;;4934189;29;20553;-70
2021/03/31 08:57:39;;;;;;;33.05;20.08;;;512.40;1177.60;;;;;;4934426;29;20047;-73
2021/03/31 09:00:08;;;;;;;30.50;18.70;;;512.80;1152.00;;;;;;4940464;29;20043;-72
2021/03/31 09:02:38;;;;;;;27.30;14.40;;;537.70;1152.00;;;;;;4955687;29;20035;-68
2021/03/31 09:05:06;;;;;;;20.02;10.35;;;538.00;1152.00;;;;;;4954075;29;20458;-69
2021/03/31 09:07:32;;;;;;;14.85;7.50;;;538.40;1075.20;;;;;;4942614;29;20023;-68
2021/03/31 09:09:58;;;;;;;17.20;9.40;;;563.30;1075.20;;;;;;4955796;29;20131;-70
2021/03/31 09:12:26;;;;;;;42.65;23.73;;;563.40;1075.20;;;;;;4955065;28;20122;-67
2021/03/31 09:14:54;;;;;;;31.90;19.60;;;563.50;1075.20;;;;;;4955251;29;20035;-67
2021/03/31 09:17:21;;;;;;;25.73;14.40;;;563.90;1049.60;;;;;;4955064;29;20038;-61
2021/03/31 09:19:51;;;;;;;23.27;14.40;;;564.00;998.40;;;;;;4950630;29;20474;-71
2021/03/31 09:22:19;;;;;;;36.95;13.02;;;563.90;972.80;;;;;;4955047;29;20114;-69
2021/03/31 09:24:50;;;;;;;25.92;10.45;;;588.80;972.80;;;;;;4954987;28;20027;-70
2021/03/31 09:27:31;;;;;;;13.53;8.27;;;589.30;921.60;;;;;;4954858;29;20049;-61
2021/03/31 09:30:01;;;;;;;71.65;33.58;;;589.50;896.00;;;;;;4955005;29;20783;-61
2021/03/31 09:32:34;;;;;;;32.70;15.43;;;589.50;921.60;;;;;;4954765;29;20023;-71
2021/03/31 09:35:12;;;;;;;27.70;13.25;;;589.40;921.60;;;;;;4947613;29;20681;-68
2021/03/31 09:37:50;;;;;;;22.20;11.23;;;589.20;896.00;;;;;;4951012;29;20019;-72
2021/03/31 09:40:24;;;;;;;37.40;19.17;;;589.50;896.00;;;;;;4954789;28;20046;-76
2021/03/31 09:42:56;;;;;;;32.47;17.40;;;589.30;896.00;;;;;;4954668;29;20035;-78
2021/03/31 09:45:27;;;;;;;62.85;29.38;;;589.20;896.00;;;;;;4954733;29;20027;-75
2021/03/31 09:47:53;;;;;;;;;;;589.10;870.40;;;;;;4955146;29;20020;-74
2021/03/31 09:50:23;;;;;;;36.28;19.27;;;;;;;;;;4954588;29;19917;-73
2021/03/31 09:52:53;;;;;;;71.30;43.92;;;;;;;;;;4954779;29;20501;-67
2021/03/31 09:55:19;;;;;;;19.37;12.87;;;;;;;;;;4954472;29;20283;-71
2021/03/31 09:57:48;;;;;;;28.95;15.88;;;;;;;;;;4954454;29;20359;-64
2021/03/31 10:00:15;;;;;;;42.50;31.88;;;;;;;;;;4954277;29;20035;-65
2021/03/31 10:02:43;;;;;;;23.75;18.27;;;;;;;;;;4954346;29;20027;-75
2021/03/31 10:05:13;;;;;;;14.43;10.45;;;;;;;;;;4946951;29;20106;-71
2021/03/31 10:07:39;;;;;;;10.60;7.25;;;;;;;;;;4954445;29;20086;-61
2021/03/31 10:10:07;;;;;;;10.40;6.38;;;972.80;435.20;;;;;;4954307;28;20377;-62
2021/03/31 10:12:34;;;;;;;10.85;6.43;;;;;;;;;;4954014;28;20054;-70
2021/03/31 10:15:09;;;;;;;12.05;7.03;;;871.30;512.00;;;;;;4954323;29;20442;-63
2021/03/31 10:17:35;;;;;;;8.80;6.60;;;947.20;435.20;;;;;;4954253;29;20060;-64
2021/03/31 10:20:14;;;;;;;43.42;19.48;;;;;;;;;;4954033;29;20375;-75
2021/03/31 10:22:40;;;;;;;33.92;23.45;;;;;;;;;;4954125;29;20054;-62
2021/03/31 10:25:07;;;;;;;26.52;20.85;;;998.60;384.00;;;;;;4954008;29;20111;-72
2021/03/31 10:27:45;;;;;;;48.95;39.85;;;998.80;384.00;;;;;;4953825;29;20411;-67
2021/03/31 10:30:29;;;;;;;74.95;56.70;;;921.90;460.80;;;;;;4954034;29;20023;-66
2021/03/31 10:32:55;;;;;;;10.75;7.85;;;;;;;;;;4953762;29;20542;-70
2021/03/31 10:35:51;;;;;;;34.90;28.85;;;947.40;409.60;;;;;;4944473;29;20028;-70
2021/03/31 10:38:35;;;;;;;13.15;7.00;;;921.90;435.20;;;;;;4941787;29;20019;-70
2021/03/31 10:54:14;;;;;;;19.80;9.38;;;;;;;;;;4932477;29;20487;-69
2021/03/31 10:56:48;;;;;;;24.75;16.30;;;;;;;;;;4932334;29;20481;-69
2021/03/31 10:59:14;;;;;;;18.20;13.27;;;844.90;512.00;;;;;;4932316;29;20031;-70
2021/03/31 11:01:39;;;;;;;19.13;9.32;;;871.30;435.20;;;;;;4932344;29;20047;-62
2021/03/31 11:04:05;;;;;;;14.60;7.90;;;921.80;409.60;;;;;;4932104;29;20027;-71
2021/03/31 11:06:32;;;;;;;56.45;21.00;;;947.20;384.00;;;;;;4932024;29;20042;-73
2021/03/31 11:08:58;;;;;;;17.92;10.40;;;;;;;;;;4932213;29;20028;-73
2021/03/31 11:11:24;;;;;;;36.78;15.05;;;;;;;;;;4932070;29;20062;-72
2021/03/31 11:13:50;;;;;;;17.52;12.98;;;819.20;512.00;;;;;;4921131;29;20115;-62
2021/03/31 11:16:16;;;;;;;34.20;12.43;;;768.50;563.20;;;;;;4913336;29;20508;-73
2021/03/31 11:26:30;;;;;;;22.70;17.40;;;819.80;512.00;;;;;;4935867;29;20047;-69
2021/03/31 11:28:56;;;;;;;19.13;12.50;;;871.10;460.80;;;;;;4940621;29;20020;-68
2021/03/31 11:31:23;;;;;;;20.00;12.05;;;;;;;;;;4935410;29;20031;-69
2021/03/31 11:33:50;;;;;;;29.50;16.33;;;922.30;409.60;;;;;;4917311;29;20063;-68
2021/03/31 11:36:16;;;;;;;35.75;12.77;;;;;;;;;;4935230;29;20028;-65
2021/03/31 11:38:44;;;;;;;23.15;10.88;;;;;;;;;;4934599;29;20024;-63
2021/03/31 11:41:10;;;;;;;14.55;10.70;;;819.40;512.00;;;;;;4934358;29;20166;-66
2021/03/31 11:43:35;;;;;;;18.58;12.57;;;845.40;486.40;;;;;;4936907;29;20099;-72
2021/03/31 11:46:01;;;;;;;18.55;9.65;;;871.10;460.80;;;;;;4934720;29;20055;-72
2021/03/31 11:48:27;;;;;;;23.50;14.15;;;820.10;537.60;;;;;;4937474;29;20066;-75
2021/03/31 11:50:53;;;;;;;25.48;13.18;;;794.20;588.80;;;;;;4946133;29;20031;-66
2021/03/31 11:53:19;;;;;;;16.63;12.18;;;;;;;;;;4949146;29;20074;-65
2021/03/31 11:55:45;;;;;;;19.15;15.57;;;717.50;691.20;;;;;;4944224;29;20051;-72
2021/03/31 11:58:10;;;;;;;19.13;13.80;;;717.30;665.60;;;;;;4952138;29;20063;-71
2021/03/31 12:00:37;;;;;;;26.17;17.48;;;692.10;691.20;;;;;;4955373;29;20474;-72
2021/03/31 12:03:06;;;;;;;19.60;15.02;;;691.60;716.80;;;;;;4956727;29;20027;-67
2021/03/31 12:05:32;;;;;;;18.45;13.02;;;666.40;742.40;;;;;;4956151;29;20042;-66
2021/03/31 12:07:58;;;;;;;23.52;15.90;;;691.60;691.20;;;;;;4951719;29;20383;-72
2021/03/31 12:10:24;;;;;;;23.98;15.52;;;742.40;665.60;;;;;;4949876;29;20070;-70
2021/03/31 12:12:50;;;;;;;11.75;8.95;;;768.10;588.80;;;;;;4956143;28;20116;-69
2021/03/31 12:15:15;;;;;;;10.98;9.35;;;794.00;588.80;;;;;;4956178;29;20019;-70
2021/03/31 12:17:42;;;;;;;13.35;8.10;;;;;;;;;;4956112;29;20027;-68
2021/03/31 12:20:11;;;;;;;33.42;22.10;;;743.30;640.00;;;;;;4956208;29;20474;-70
2021/03/31 12:22:37;;;;;;;15.93;12.80;;;742.90;665.60;;;;;;4955993;28;20035;-69
2021/03/31 12:25:04;;;;;;;20.70;12.30;;;717.70;665.60;;;;;;4956188;29;20102;-69
2021/03/31 12:27:33;;;;;;;16.95;12.02;;;692.00;691.20;;;;;;4955868;28;20027;-69
2021/03/31 12:29:59;;;;;;;16.80;11.40;;;691.40;716.80;;;;;;4955947;29;20027;-70
2021/03/31 12:32:24;;;;;;;17.88;11.43;;;691.20;742.40;;;;;;4955896;29;20166;-69
2021/03/31 12:34:52;;;;;;;29.20;12.13;;;;;;;;;;4955795;29;20526;-69
2021/03/31 12:37:18;;;;;;;28.00;13.65;;;;;;;;;;4938373;29;20031;-69
2021/03/31 12:39:44;;;;;;;21.20;11.95;;;640.90;742.40;;;;;;4955836;29;20015;-70
2021/03/31 12:42:10;;;;;;;20.75;13.13;;;640.60;742.40;;;;;;4956279;28;20035;-69
2021/03/31 12:44:36;;;;;;;18.73;10.68;;;640.40;768.00;;;;;;4954644;29;20439;-69
2021/03/31 12:47:02;;;;;;;15.98;9.27;;;640.70;742.40;;;;;;4955546;29;20486;-70